Time;durP1;ratioP1;P1;durP2;ratioP2;P2;SDS_P1;SDS_P2;PMS_P1;PMS_P2;Temp;Humidity;BMP_temperature;BMP_pressure;BME280_temperature;BME280_humidity;BME280_pressure;Samples;Min_cycle;Max_cycle;Signal;HPM_P1;HPM_P2
2021/12/07 00:01:48;;;;;;;;;;;20.70;35.70;;;;;;478350;249;1085;-46
2021/12/07 00:03:49;;;;;;;;;;;20.70;35.70;;;;;;478295;249;1082;-46
2021/12/07 00:05:51;;;;;;;;;;;20.70;35.70;;;;;;478274;249;1096;-46
2021/12/07 00:07:52;;;;;;;;;;;20.70;35.70;;;;;;478353;248;1187;-46
2021/12/07 00:09:53;;;;;;;;;;;20.80;35.70;;;;;;478604;249;1222;-46
2021/12/07 00:11:56;;;;;;;;;;;20.70;35.70;;;;;;478705;249;2198;-46
2021/12/07 00:13:57;;;;;;;;;;;20.70;35.70;;;;;;478269;249;2424;-45
2021/12/07 00:15:58;;;;;;;;;;;20.70;35.70;;;;;;478235;249;1012;-46
2021/12/07 00:17:59;;;;;;;;;;;20.70;35.70;;;;;;478507;249;1070;-46
2021/12/07 00:20:01;;;;;;;;;;;20.70;35.60;;;;;;478298;249;1198;-46
2021/12/07 00:22:02;;;;;;;;;;;20.70;35.70;;;;;;478485;248;1337;-46
2021/12/07 00:24:03;;;;;;;;;;;20.70;35.70;;;;;;478514;249;1116;-46
2021/12/07 00:26:05;;;;;;;;;;;20.60;35.70;;;;;;478209;249;1217;-46
2021/12/07 00:28:06;;;;;;;;;;;20.60;35.70;;;;;;478509;249;1017;-46
2021/12/07 00:30:07;;;;;;;;;;;20.70;35.70;;;;;;478342;249;1044;-45
2021/12/07 00:32:20;;;;;;;;;;;20.70;35.70;;;;;;478260;249;2210;-45
2021/12/07 00:34:18;;;;;;;;;;;20.70;35.70;;;;;;477869;249;2216;-46
2021/12/07 00:36:14;;;;;;;;;;;20.70;35.70;;;;;;478040;248;2095;-46
2021/12/07 00:38:16;;;;;;;;;;;20.70;35.70;;;;;;478799;249;1055;-46
2021/12/07 00:40:17;;;;;;;;;;;20.60;35.70;;;;;;478318;249;1381;-46
2021/12/07 00:42:19;;;;;;;;;;;20.60;35.70;;;;;;478297;249;1260;-46
2021/12/07 00:44:20;;;;;;;;;;;20.60;35.60;;;;;;478349;249;1051;-46
2021/12/07 00:46:23;;;;;;;;;;;20.60;35.70;;;;;;478287;249;1265;-46
2021/12/07 00:48:23;;;;;;;;;;;20.60;35.70;;;;;;478209;249;2293;-46
2021/12/07 00:50:24;;;;;;;;;;;20.60;35.70;;;;;;478393;249;1094;-45
2021/12/07 00:52:25;;;;;;;;;;;20.60;35.70;;;;;;478729;249;2202;-46
2021/12/07 00:54:26;;;;;;;;;;;20.60;35.70;;;;;;478782;249;1041;-46
2021/12/07 00:56:28;;;;;;;;;;;20.70;35.70;;;;;;478301;249;1366;-46
2021/12/07 00:58:29;;;;;;;;;;;20.60;35.60;;;;;;478768;249;1079;-46
2021/12/07 01:00:31;;;;;;;;;;;20.70;35.80;;;;;;478310;249;1097;-45
2021/12/07 01:02:32;;;;;;;;;;;20.60;35.60;;;;;;478526;249;1063;-46
2021/12/07 01:04:33;;;;;;;;;;;20.60;35.70;;;;;;478376;249;1005;-45
2021/12/07 01:06:46;;;;;;;;;;;20.60;35.70;;;;;;478575;249;1176;-46
2021/12/07 01:09:06;;;;;;;;;;;20.60;35.70;;;;;;477757;249;2475;-46
2021/12/07 01:25:07;;;;;;;;;;;20.60;35.80;;;;;;478663;248;1174;-45
2021/12/07 01:27:08;;;;;;;;;;;20.60;35.70;;;;;;478237;249;1230;-46
2021/12/07 01:29:09;;;;;;;;;;;20.50;35.70;;;;;;478784;249;1050;-46
2021/12/07 01:31:17;;;;;;;;;;;20.60;35.70;;;;;;478690;248;1288;-46
2021/12/07 01:33:30;;;;;;;;;;;20.60;35.70;;;;;;477935;249;2202;-46
2021/12/07 01:35:48;;;;;;;;;;;20.50;35.70;;;;;;477673;249;1852;-45
2021/12/07 01:37:58;;;;;;;;;;;20.60;35.70;;;;;;477709;249;1970;-46
2021/12/07 01:40:21;;;;;;;;;;;20.60;35.70;;;;;;477878;248;2317;-46
2021/12/07 01:44:41;;;;;;;;;;;20.60;35.80;;;;;;478753;248;1037;-46
2021/12/07 01:46:47;;;;;;;;;;;20.50;35.70;;;;;;477548;249;2174;-46
2021/12/07 01:51:17;;;;;;;;;;;20.50;35.70;;;;;;478398;248;1315;-46
2021/12/07 01:59:32;;;;;;;;;;;20.60;35.70;;;;;;478447;248;1019;-46
2021/12/07 02:00:09;;;;;;;;;;;20.50;35.70;;;;;;477268;249;1155;-46
2021/12/07 02:02:10;;;;;;;;;;;20.60;35.80;;;;;;478522;248;1191;-46
2021/12/07 02:04:11;;;;;;;;;;;20.50;35.70;;;;;;478617;249;1074;-45
2021/12/07 02:06:13;;;;;;;;;;;20.50;35.80;;;;;;478230;249;1148;-46
2021/12/07 02:08:14;;;;;;;;;;;20.50;35.80;;;;;;478252;249;1604;-46
2021/12/07 02:10:19;;;;;;;;;;;20.50;35.80;;;;;;478357;249;1010;-46
2021/12/07 02:12:17;;;;;;;;;;;20.50;35.80;;;;;;478071;249;2162;-46
2021/12/07 02:14:18;;;;;;;;;;;20.50;35.80;;;;;;478347;249;1116;-45
2021/12/07 02:16:21;;;;;;;;;;;20.50;35.80;;;;;;478300;249;1332;-45
2021/12/07 02:18:21;;;;;;;;;;;20.50;35.80;;;;;;478250;249;2153;-46
2021/12/07 02:20:22;;;;;;;;;;;20.50;35.80;;;;;;478327;249;1061;-45
2021/12/07 02:22:23;;;;;;;;;;;20.50;35.80;;;;;;478676;249;1030;-45
2021/12/07 02:24:25;;;;;;;;;;;20.50;35.80;;;;;;478780;249;1017;-46
2021/12/07 02:26:26;;;;;;;;;;;20.50;35.80;;;;;;478558;248;1319;-46
2021/12/07 02:28:27;;;;;;;;;;;20.50;35.70;;;;;;478589;249;1054;-46
2021/12/07 02:30:28;;;;;;;;;;;20.50;35.80;;;;;;478294;249;1094;-46
2021/12/07 02:32:30;;;;;;;;;;;20.50;35.70;;;;;;478253;249;2131;-45
2021/12/07 02:34:31;;;;;;;;;;;20.50;35.80;;;;;;478636;248;1402;-45
2021/12/07 02:36:32;;;;;;;;;;;20.50;35.70;;;;;;478423;248;1039;-46
2021/12/07 02:38:34;;;;;;;;;;;20.50;35.80;;;;;;478810;249;1194;-46
2021/12/07 02:40:35;;;;;;;;;;;20.40;35.80;;;;;;478749;249;1084;-45
2021/12/07 02:42:36;;;;;;;;;;;20.50;35.80;;;;;;478294;249;1241;-46
2021/12/07 02:44:38;;;;;;;;;;;20.50;35.80;;;;;;478553;249;985;-46
2021/12/07 02:46:39;;;;;;;;;;;20.50;35.70;;;;;;478218;249;1240;-46
2021/12/07 02:48:40;;;;;;;;;;;20.50;35.70;;;;;;478260;249;1046;-46
2021/12/07 02:50:42;;;;;;;;;;;20.50;35.70;;;;;;478325;249;1201;-46
2021/12/07 02:52:43;;;;;;;;;;;20.50;35.70;;;;;;478317;249;2186;-46
2021/12/07 02:54:46;;;;;;;;;;;20.50;35.70;;;;;;478272;249;987;-46
2021/12/07 02:56:46;;;;;;;;;;;20.50;35.70;;;;;;478165;249;1575;-46
2021/12/07 02:58:47;;;;;;;;;;;20.50;35.70;;;;;;478468;249;1017;-46
2021/12/07 03:00:55;;;;;;;;;;;20.50;35.80;;;;;;478353;249;1126;-46
2021/12/07 03:02:55;;;;;;;;;;;20.40;35.80;;;;;;477957;248;2153;-46
2021/12/07 03:04:59;;;;;;;;;;;20.50;35.80;;;;;;478464;248;1876;-45
2021/12/07 03:07:03;;;;;;;;;;;20.40;35.80;;;;;;477792;249;1828;-45
2021/12/07 03:09:44;;;;;;;;;;;20.40;35.80;;;;;;478243;248;1596;-46
2021/12/07 03:27:45;;;;;;;;;;;20.50;35.70;;;;;;478321;248;1123;-46
2021/12/07 03:29:47;;;;;;;;;;;20.40;35.80;;;;;;478414;249;1061;-46
2021/12/07 03:31:48;;;;;;;;;;;20.40;35.80;;;;;;478349;249;1088;-46
2021/12/07 03:33:49;;;;;;;;;;;20.40;35.80;;;;;;478328;248;2128;-46
2021/12/07 03:35:51;;;;;;;;;;;20.40;35.80;;;;;;478791;249;1042;-46
2021/12/07 03:37:52;;;;;;;;;;;20.40;35.80;;;;;;478426;248;1103;-46
2021/12/07 03:39:53;;;;;;;;;;;20.40;35.80;;;;;;478424;249;1263;-46
2021/12/07 03:41:55;;;;;;;;;;;20.40;35.80;;;;;;478195;249;1231;-46
2021/12/07 03:43:56;;;;;;;;;;;20.40;35.80;;;;;;478351;249;1245;-46
2021/12/07 03:45:57;;;;;;;;;;;20.40;35.80;;;;;;478736;249;1210;-46
2021/12/07 03:47:59;;;;;;;;;;;20.40;35.80;;;;;;478515;249;1355;-46
2021/12/07 03:50:00;;;;;;;;;;;20.40;35.80;;;;;;478586;249;1055;-46
2021/12/07 03:52:01;;;;;;;;;;;20.40;35.80;;;;;;478267;249;1368;-46
2021/12/07 03:54:02;;;;;;;;;;;20.40;35.80;;;;;;478419;249;2191;-46
2021/12/07 03:56:04;;;;;;;;;;;20.30;35.80;;;;;;478411;249;1163;-46
2021/12/07 03:58:05;;;;;;;;;;;20.40;35.80;;;;;;478306;249;1198;-45
2021/12/07 04:00:07;;;;;;;;;;;20.40;35.90;;;;;;478343;249;1182;-46
2021/12/07 04:02:08;;;;;;;;;;;20.40;35.90;;;;;;478433;248;1260;-46
2021/12/07 04:04:09;;;;;;;;;;;20.40;35.90;;;;;;478789;249;1122;-46
2021/12/07 04:06:10;;;;;;;;;;;20.40;35.90;;;;;;478785;249;1016;-46
2021/12/07 04:08:12;;;;;;;;;;;20.40;35.80;;;;;;478771;249;1061;-46
2021/12/07 04:10:13;;;;;;;;;;;20.40;35.80;;;;;;478314;249;1375;-46
2021/12/07 04:12:14;;;;;;;;;;;20.40;35.80;;;;;;478472;249;1325;-46
2021/12/07 04:14:16;;;;;;;;;;;20.40;35.80;;;;;;478657;249;2192;-45
2021/12/07 04:16:17;;;;;;;;;;;20.40;35.90;;;;;;478596;249;1055;-46
2021/12/07 04:18:18;;;;;;;;;;;20.30;35.90;;;;;;478550;249;1028;-46
2021/12/07 04:20:19;;;;;;;;;;;20.30;35.80;;;;;;478261;249;1472;-46
2021/12/07 04:22:21;;;;;;;;;;;20.40;35.90;;;;;;478245;249;1218;-46
2021/12/07 04:24:27;;;;;;;;;;;20.40;35.90;;;;;;478799;249;1040;-46
2021/12/07 04:26:24;;;;;;;;;;;20.40;35.90;;;;;;478538;248;2181;-46
2021/12/07 04:28:25;;;;;;;;;;;20.30;35.90;;;;;;478304;249;2278;-46
2021/12/07 04:30:26;;;;;;;;;;;20.40;35.90;;;;;;478502;249;1073;-46
2021/12/07 04:32:27;;;;;;;;;;;20.30;35.90;;;;;;478265;249;1174;-46
2021/12/07 04:34:29;;;;;;;;;;;20.40;35.90;;;;;;478794;249;2186;-46
2021/12/07 04:36:30;;;;;;;;;;;20.40;35.90;;;;;;478506;249;1121;-46
2021/12/07 04:38:31;;;;;;;;;;;20.40;35.80;;;;;;478343;248;1223;-45
2021/12/07 04:40:33;;;;;;;;;;;20.40;35.90;;;;;;478374;248;991;-46
2021/12/07 04:42:34;;;;;;;;;;;20.40;35.80;;;;;;478278;249;1203;-46
2021/12/07 04:44:41;;;;;;;;;;;20.30;35.80;;;;;;478598;249;994;-46
2021/12/07 04:46:43;;;;;;;;;;;20.40;35.90;;;;;;478029;248;2236;-46
2021/12/07 04:58:19;;;;;;;;;;;20.40;35.90;;;;;;478588;248;1229;-46
2021/12/07 05:00:20;;;;;;;;;;;20.40;36.00;;;;;;478460;249;1618;-46
2021/12/07 05:02:22;;;;;;;;;;;20.30;35.90;;;;;;478273;249;1349;-46
2021/12/07 05:04:27;;;;;;;;;;;20.30;35.90;;;;;;478289;249;1151;-46
2021/12/07 05:06:28;;;;;;;;;;;20.30;35.90;;;;;;478024;249;1690;-46
2021/12/07 05:08:36;;;;;;;;;;;20.40;35.90;;;;;;478056;249;2502;-46
2021/12/07 05:10:36;;;;;;;;;;;20.30;35.90;;;;;;478345;248;1497;-46
2021/12/07 05:12:44;;;;;;;;;;;20.30;35.90;;;;;;478012;249;1963;-45
2021/12/07 05:14:39;;;;;;;;;;;20.30;35.90;;;;;;477831;249;2190;-45
2021/12/07 05:16:58;;;;;;;;;;;20.30;35.90;;;;;;478108;249;2353;-45
2021/12/07 05:19:01;;;;;;;;;;;20.30;35.90;;;;;;478000;248;2148;-46
2021/12/07 05:37:45;;;;;;;;;;;20.40;35.90;;;;;;478277;248;983;-46
2021/12/07 05:39:42;;;;;;;;;;;20.30;35.80;;;;;;477934;249;2052;-46
2021/12/07 05:41:43;;;;;;;;;;;20.40;35.90;;;;;;478284;249;1380;-45
2021/12/07 05:43:45;;;;;;;;;;;20.30;35.90;;;;;;478224;249;1162;-46
2021/12/07 05:45:46;;;;;;;;;;;20.40;35.90;;;;;;478677;248;1091;-46
2021/12/07 05:47:47;;;;;;;;;;;20.30;35.90;;;;;;478277;249;1047;-45
2021/12/07 05:49:48;;;;;;;;;;;20.30;35.90;;;;;;478519;249;1073;-46
2021/12/07 05:51:50;;;;;;;;;;;20.40;35.90;;;;;;478198;249;1073;-46
2021/12/07 05:53:51;;;;;;;;;;;20.40;35.90;;;;;;478279;249;2186;-46
2021/12/07 05:55:53;;;;;;;;;;;20.40;35.90;;;;;;478312;248;1152;-46
2021/12/07 05:57:54;;;;;;;;;;;20.40;35.90;;;;;;478117;249;1341;-46
2021/12/07 05:59:55;;;;;;;;;;;20.30;36.00;;;;;;478249;249;1104;-45
2021/12/07 06:01:57;;;;;;;;;;;20.30;36.00;;;;;;478126;249;1135;-45
2021/12/07 06:03:58;;;;;;;;;;;20.30;36.00;;;;;;478413;249;1091;-45
2021/12/07 06:06:03;;;;;;;;;;;20.30;35.90;;;;;;478044;249;1055;-46
2021/12/07 06:08:01;;;;;;;;;;;20.30;35.90;;;;;;478043;248;1430;-46
2021/12/07 06:10:02;;;;;;;;;;;20.30;36.00;;;;;;478251;248;1043;-46
2021/12/07 06:12:04;;;;;;;;;;;20.30;35.90;;;;;;478104;249;1227;-46
2021/12/07 06:14:05;;;;;;;;;;;20.30;35.90;;;;;;478264;249;2152;-45
2021/12/07 06:16:08;;;;;;;;;;;20.40;36.00;;;;;;478264;249;1343;-45
2021/12/07 06:18:08;;;;;;;;;;;20.30;36.00;;;;;;478108;248;1781;-46
2021/12/07 06:20:09;;;;;;;;;;;20.40;36.00;;;;;;478225;248;1104;-45
2021/12/07 06:22:10;;;;;;;;;;;20.30;35.90;;;;;;478150;249;1189;-46
2021/12/07 06:24:12;;;;;;;;;;;20.40;35.90;;;;;;478104;249;1123;-46
2021/12/07 06:26:13;;;;;;;;;;;20.40;36.00;;;;;;477976;249;1330;-46
2021/12/07 06:28:15;;;;;;;;;;;20.30;35.90;;;;;;477998;248;1210;-46
2021/12/07 06:30:16;;;;;;;;;;;20.30;36.00;;;;;;478240;248;1060;-45
2021/12/07 06:32:17;;;;;;;;;;;20.30;36.00;;;;;;478089;249;1089;-46
2021/12/07 06:34:19;;;;;;;;;;;20.30;36.00;;;;;;478110;249;2139;-46
2021/12/07 06:36:20;;;;;;;;;;;20.30;36.10;;;;;;478224;249;1173;-46
2021/12/07 06:38:22;;;;;;;;;;;20.30;36.00;;;;;;478355;248;1126;-45
2021/12/07 06:40:23;;;;;;;;;;;20.30;36.10;;;;;;478115;249;2393;-45
2021/12/07 06:42:24;;;;;;;;;;;20.40;36.00;;;;;;478231;249;1465;-46
2021/12/07 06:44:25;;;;;;;;;;;20.30;36.10;;;;;;477968;249;1221;-45
2021/12/07 06:46:27;;;;;;;;;;;20.30;36.10;;;;;;477746;249;1530;-45
2021/12/07 06:48:28;;;;;;;;;;;20.30;36.00;;;;;;477863;249;1028;-46
2021/12/07 06:50:29;;;;;;;;;;;20.50;35.90;;;;;;477834;249;1310;-46
2021/12/07 06:52:31;;;;;;;;;;;20.70;35.50;;;;;;477913;249;1102;-46
2021/12/07 06:54:32;;;;;;;;;;;20.90;35.20;;;;;;478059;249;2136;-46
2021/12/07 06:56:33;;;;;;;;;;;20.90;34.90;;;;;;477892;249;1621;-46
2021/12/07 06:58:35;;;;;;;;;;;21.10;34.80;;;;;;478031;249;1154;-46
2021/12/07 07:00:37;;;;;;;;;;;21.10;34.60;;;;;;477923;249;1399;-45
2021/12/07 07:02:37;;;;;;;;;;;21.20;34.50;;;;;;477755;249;2109;-46
2021/12/07 07:04:39;;;;;;;;;;;21.30;34.40;;;;;;477963;249;1256;-46
2021/12/07 07:06:40;;;;;;;;;;;21.30;34.30;;;;;;477720;249;1358;-46
2021/12/07 07:08:41;;;;;;;;;;;21.40;34.30;;;;;;477988;249;1092;-46
2021/12/07 07:10:43;;;;;;;;;;;21.40;34.10;;;;;;477744;249;1141;-46
2021/12/07 07:12:44;;;;;;;;;;;21.40;34.00;;;;;;477713;249;1171;-46
2021/12/07 07:14:45;;;;;;;;;;;21.50;33.90;;;;;;477784;249;2194;-46
2021/12/07 07:16:46;;;;;;;;;;;21.50;33.80;;;;;;477726;249;1414;-46
2021/12/07 07:18:48;;;;;;;;;;;21.50;33.70;;;;;;477762;249;1272;-45
2021/12/07 07:20:49;;;;;;;;;;;21.60;33.70;;;;;;478090;249;1393;-46
2021/12/07 07:22:50;;;;;;;;;;;21.60;33.50;;;;;;477960;249;1381;-46
2021/12/07 07:24:52;;;;;;;;;;;21.60;33.50;;;;;;477845;249;1239;-46
2021/12/07 07:26:53;;;;;;;;;;;21.70;33.50;;;;;;477775;249;1410;-46
2021/12/07 07:28:54;;;;;;;;;;;21.70;33.40;;;;;;477976;248;1222;-46
2021/12/07 07:30:56;;;;;;;;;;;21.70;33.40;;;;;;477824;249;1231;-46
2021/12/07 07:32:57;;;;;;;;;;;21.70;33.30;;;;;;477984;249;1368;-46
2021/12/07 07:34:58;;;;;;;;;;;21.80;33.30;;;;;;477915;248;2198;-46
2021/12/07 07:37:00;;;;;;;;;;;21.80;33.20;;;;;;477776;249;1203;-46
2021/12/07 07:39:01;;;;;;;;;;;21.80;33.20;;;;;;477784;248;1078;-46
2021/12/07 07:41:03;;;;;;;;;;;21.90;33.10;;;;;;477548;249;1153;-46
2021/12/07 07:43:04;;;;;;;;;;;21.90;33.20;;;;;;477590;249;1252;-45
2021/12/07 07:45:05;;;;;;;;;;;21.90;33.10;;;;;;477565;249;1198;-45
2021/12/07 07:47:06;;;;;;;;;;;21.90;33.00;;;;;;477530;249;1168;-46
2021/12/07 07:49:08;;;;;;;;;;;21.90;33.00;;;;;;477723;248;1105;-46
2021/12/07 07:51:10;;;;;;;;;;;21.90;33.00;;;;;;477717;249;1052;-46
2021/12/07 07:53:11;;;;;;;;;;;21.90;32.90;;;;;;477937;249;1088;-45
2021/12/07 07:55:12;;;;;;;;;;;22.00;32.90;;;;;;477826;249;2131;-46
2021/12/07 07:57:14;;;;;;;;;;;22.00;32.80;;;;;;477591;249;1158;-46
2021/12/07 07:59:15;;;;;;;;;;;22.00;32.90;;;;;;477629;249;1236;-46
2021/12/07 08:01:16;;;;;;;;;;;22.00;32.80;;;;;;477574;249;1156;-46
2021/12/07 08:03:18;;;;;;;;;;;22.00;32.80;;;;;;477574;249;1090;-46
2021/12/07 08:05:19;;;;;;;;;;;22.00;32.80;;;;;;477571;249;1117;-46
2021/12/07 08:07:20;;;;;;;;;;;22.00;32.70;;;;;;477670;248;1095;-46
2021/12/07 08:09:22;;;;;;;;;;;22.00;32.70;;;;;;477591;249;1097;-46
2021/12/07 08:11:23;;;;;;;;;;;22.10;32.80;;;;;;477526;248;1099;-46
2021/12/07 08:13:24;;;;;;;;;;;22.10;32.60;;;;;;477531;249;1235;-46
2021/12/07 08:15:26;;;;;;;;;;;22.10;32.60;;;;;;477567;249;2193;-46
2021/12/07 08:17:27;;;;;;;;;;;22.10;32.60;;;;;;477648;249;1219;-46
2021/12/07 08:19:28;;;;;;;;;;;22.10;32.60;;;;;;477527;249;1241;-46
2021/12/07 08:21:30;;;;;;;;;;;22.10;32.60;;;;;;477569;248;1227;-46
2021/12/07 08:23:31;;;;;;;;;;;22.10;32.50;;;;;;477698;249;1102;-46
2021/12/07 08:25:33;;;;;;;;;;;22.10;32.50;;;;;;477499;249;1113;-46
2021/12/07 08:27:34;;;;;;;;;;;22.20;32.50;;;;;;477658;249;1161;-46
2021/12/07 08:29:35;;;;;;;;;;;22.20;32.50;;;;;;477449;248;1230;-46
2021/12/07 08:31:37;;;;;;;;;;;22.20;32.40;;;;;;477589;249;1040;-46
2021/12/07 08:33:38;;;;;;;;;;;22.20;32.50;;;;;;477447;249;1158;-46
2021/12/07 08:35:39;;;;;;;;;;;22.20;32.50;;;;;;477903;249;2190;-46
2021/12/07 08:37:41;;;;;;;;;;;22.20;32.50;;;;;;477681;248;1315;-46
2021/12/07 08:39:42;;;;;;;;;;;22.20;32.40;;;;;;477674;249;1266;-46
2021/12/07 08:41:43;;;;;;;;;;;22.20;32.40;;;;;;477614;249;1372;-46
2021/12/07 08:43:45;;;;;;;;;;;22.20;32.50;;;;;;477572;249;1213;-46
2021/12/07 08:45:46;;;;;;;;;;;22.20;32.50;;;;;;477720;249;1189;-46
2021/12/07 08:47:47;;;;;;;;;;;22.20;32.40;;;;;;477680;249;1087;-46
2021/12/07 08:49:48;;;;;;;;;;;22.20;32.30;;;;;;477670;249;1195;-46
2021/12/07 08:51:50;;;;;;;;;;;22.30;32.40;;;;;;477394;249;1287;-46
2021/12/07 08:53:56;;;;;;;;;;;22.30;32.30;;;;;;477568;249;1142;-46
2021/12/07 09:00:31;;;;;;;;;;;22.30;32.30;;;;;;477704;248;1270;-46
2021/12/07 09:02:33;;;;;;;;;;;22.30;32.40;;;;;;477690;248;1107;-45
2021/12/07 09:04:34;;;;;;;;;;;22.30;32.30;;;;;;477753;248;1208;-46
2021/12/07 09:06:37;;;;;;;;;;;22.30;32.30;;;;;;477379;249;1288;-46
2021/12/07 09:08:37;;;;;;;;;;;22.30;32.20;;;;;;477478;248;1463;-46
2021/12/07 09:10:38;;;;;;;;;;;22.40;32.20;;;;;;477491;248;1100;-46
2021/12/07 09:12:39;;;;;;;;;;;22.30;32.20;;;;;;477420;249;1237;-46
2021/12/07 09:14:42;;;;;;;;;;;22.30;32.10;;;;;;477615;249;2135;-46
2021/12/07 09:16:43;;;;;;;;;;;22.30;32.20;;;;;;477472;249;1355;-46
2021/12/07 09:18:44;;;;;;;;;;;22.40;32.20;;;;;;477557;249;1323;-46
2021/12/07 09:20:46;;;;;;;;;;;22.30;32.10;;;;;;477498;249;1104;-46
2021/12/07 09:22:47;;;;;;;;;;;22.40;32.20;;;;;;477594;248;1362;-46
2021/12/07 09:24:49;;;;;;;;;;;22.40;32.20;;;;;;477668;248;1126;-46
2021/12/07 09:26:50;;;;;;;;;;;22.40;32.10;;;;;;477447;248;1121;-46
2021/12/07 09:28:51;;;;;;;;;;;22.40;32.10;;;;;;477437;248;1240;-46
2021/12/07 09:30:53;;;;;;;;;;;22.40;32.10;;;;;;477461;249;1257;-46
2021/12/07 09:32:54;;;;;;;;;;;22.40;32.10;;;;;;477521;249;1057;-47
2021/12/07 09:34:55;;;;;;;;;;;22.50;32.10;;;;;;477562;249;2119;-46
2021/12/07 09:36:56;;;;;;;;;;;22.40;32.10;;;;;;477644;249;1105;-46
2021/12/07 09:38:58;;;;;;;;;;;22.40;32.10;;;;;;477648;249;1135;-46
2021/12/07 09:40:59;;;;;;;;;;;22.50;32.10;;;;;;477489;249;1309;-46
2021/12/07 09:43:00;;;;;;;;;;;22.40;32.00;;;;;;477635;248;1166;-46
2021/12/07 09:45:02;;;;;;;;;;;22.40;31.90;;;;;;477529;249;1152;-46
2021/12/07 09:47:03;;;;;;;;;;;22.40;32.00;;;;;;477487;249;1229;-46
2021/12/07 09:49:05;;;;;;;;;;;22.40;32.00;;;;;;477482;249;1100;-46
2021/12/07 09:51:06;;;;;;;;;;;22.40;32.00;;;;;;477579;249;1132;-46
2021/12/07 09:53:07;;;;;;;;;;;22.40;32.00;;;;;;477479;249;1385;-46
2021/12/07 09:55:09;;;;;;;;;;;22.50;32.00;;;;;;477378;249;2187;-46
2021/12/07 09:57:11;;;;;;;;;;;22.40;32.00;;;;;;477833;249;1310;-46
2021/12/07 09:59:12;;;;;;;;;;;22.40;32.00;;;;;;477903;249;1540;-46
2021/12/07 10:01:13;;;;;;;;;;;22.50;32.00;;;;;;477490;249;1253;-46
2021/12/07 10:03:15;;;;;;;;;;;22.50;31.90;;;;;;477503;248;1112;-46
2021/12/07 10:05:19;;;;;;;;;;;22.50;31.90;;;;;;477661;248;2490;-46
2021/12/07 10:07:19;;;;;;;;;;;22.50;31.90;;;;;;477784;248;1791;-46
2021/12/07 10:09:20;;;;;;;;;;;22.50;31.90;;;;;;477675;249;2033;-46
2021/12/07 10:11:21;;;;;;;;;;;22.50;31.90;;;;;;477400;248;1450;-46
2021/12/07 10:13:22;;;;;;;;;;;22.50;31.90;;;;;;477450;249;1166;-46
2021/12/07 10:15:24;;;;;;;;;;;22.50;31.90;;;;;;477544;249;2134;-46
2021/12/07 10:17:25;;;;;;;;;;;22.50;31.90;;;;;;477440;249;1206;-46
2021/12/07 10:19:26;;;;;;;;;;;22.50;31.80;;;;;;477611;249;1142;-46
2021/12/07 10:21:28;;;;;;;;;;;22.50;31.90;;;;;;477577;249;1158;-46
2021/12/07 10:23:29;;;;;;;;;;;22.50;31.80;;;;;;477649;249;1354;-46
2021/12/07 10:25:30;;;;;;;;;;;22.50;31.80;;;;;;477601;249;1460;-46
2021/12/07 10:27:32;;;;;;;;;;;22.50;31.80;;;;;;477511;249;1318;-46
2021/12/07 10:29:33;;;;;;;;;;;22.60;31.80;;;;;;477588;249;1126;-46
2021/12/07 10:31:34;;;;;;;;;;;22.60;31.80;;;;;;477532;249;1253;-46
2021/12/07 10:33:36;;;;;;;;;;;22.50;31.70;;;;;;477641;249;1092;-46
2021/12/07 10:35:37;;;;;;;;;;;22.50;31.70;;;;;;477485;249;2223;-46
2021/12/07 10:37:38;;;;;;;;;;;22.50;31.80;;;;;;477523;249;1578;-46
2021/12/07 10:39:40;;;;;;;;;;;22.50;31.70;;;;;;477386;249;1090;-46
2021/12/07 10:41:41;;;;;;;;;;;22.60;31.80;;;;;;477614;249;1356;-46
2021/12/07 10:43:42;;;;;;;;;;;22.60;31.80;;;;;;478304;249;823;-46
2021/12/07 10:45:44;;;;;;;;;;;22.60;31.70;;;;;;477831;248;1262;-46
2021/12/07 10:47:45;;;;;;;;;;;22.60;31.70;;;;;;477844;249;1233;-46
2021/12/07 10:49:46;;;;;;;;;;;22.60;31.70;;;;;;478169;249;1124;-46
2021/12/07 10:51:48;;;;;;;;;;;22.60;31.70;;;;;;477585;249;1330;-46
2021/12/07 10:53:49;;;;;;;;;;;22.60;31.70;;;;;;477681;248;1069;-46
2021/12/07 10:55:50;;;;;;;;;;;22.60;31.70;;;;;;477326;248;2188;-46
2021/12/07 10:57:52;;;;;;;;;;;22.60;31.70;;;;;;477375;249;1096;-46
2021/12/07 10:59:53;;;;;;;;;;;22.60;31.60;;;;;;477490;249;1289;-46
2021/12/07 11:01:54;;;;;;;;;;;22.60;31.70;;;;;;477607;249;1262;-46
2021/12/07 11:03:56;;;;;;;;;;;22.60;31.60;;;;;;477741;249;1106;-46
2021/12/07 11:05:57;;;;;;;;;;;22.60;31.60;;;;;;477612;249;1361;-46
2021/12/07 11:08:00;;;;;;;;;;;22.60;31.60;;;;;;477621;248;1239;-46
2021/12/07 11:10:07;;;;;;;;;;;22.60;31.50;;;;;;477339;248;2058;-46
2021/12/07 11:12:06;;;;;;;;;;;22.60;31.60;;;;;;477349;249;2286;-46
2021/12/07 11:14:08;;;;;;;;;;;22.60;31.50;;;;;;477540;249;1274;-46
2021/12/07 11:16:11;;;;;;;;;;;22.60;31.50;;;;;;477591;249;2183;-46
2021/12/07 11:18:11;;;;;;;;;;;22.60;31.50;;;;;;477612;249;2145;-46
2021/12/07 11:20:12;;;;;;;;;;;22.60;31.50;;;;;;477758;248;1156;-46
2021/12/07 11:22:14;;;;;;;;;;;22.60;31.50;;;;;;477599;249;1235;-46
2021/12/07 11:24:15;;;;;;;;;;;22.60;31.50;;;;;;477600;249;1161;-46
2021/12/07 11:31:12;;;;;;;;;;;22.70;31.50;;;;;;462206;256;1174;-46
2021/12/07 11:33:13;;;;;;;;;;;22.70;31.50;;;;;;470125;249;1261;-46
2021/12/07 11:35:15;;;;;;;;;;;22.70;31.50;;;;;;477456;249;2135;-46
2021/12/07 11:37:16;;;;;;;;;;;22.70;31.50;;;;;;477448;248;1237;-46
2021/12/07 11:39:18;;;;;;;;;;;22.60;31.40;;;;;;477388;249;1117;-46
2021/12/07 11:41:20;;;;;;;;;;;22.60;31.40;;;;;;477438;249;1253;-46
2021/12/07 11:43:21;;;;;;;;;;;22.70;31.50;;;;;;477740;249;1604;-46
2021/12/07 11:45:22;;;;;;;;;;;22.70;31.50;;;;;;477594;249;1466;-46
2021/12/07 11:47:24;;;;;;;;;;;22.70;31.50;;;;;;477924;249;1236;-46
2021/12/07 11:49:25;;;;;;;;;;;22.70;31.50;;;;;;477704;249;1272;-46
2021/12/07 11:51:26;;;;;;;;;;;22.70;31.50;;;;;;477660;249;1239;-46
2021/12/07 11:53:29;;;;;;;;;;;22.70;31.50;;;;;;477630;249;1217;-46
2021/12/07 11:55:29;;;;;;;;;;;22.70;31.50;;;;;;477485;248;2159;-46
2021/12/07 11:57:30;;;;;;;;;;;22.70;31.40;;;;;;477732;248;1309;-46
2021/12/07 11:59:31;;;;;;;;;;;22.70;31.50;;;;;;477730;248;1106;-47
2021/12/07 12:01:33;;;;;;;;;;;22.60;31.70;;;;;;477336;248;1235;-45
2021/12/07 12:03:35;;;;;;;;;;;22.50;31.80;;;;;;477895;248;1113;-46
2021/12/07 12:05:36;;;;;;;;;;;22.30;32.10;;;;;;477663;248;1232;-46
2021/12/07 12:07:40;;;;;;;;;;;22.10;32.30;;;;;;477776;249;1049;-46
2021/12/07 12:09:44;;;;;;;;;;;22.00;32.50;;;;;;477340;248;2202;-46
2021/12/07 12:11:41;;;;;;;;;;;21.80;32.80;;;;;;477173;249;2581;-46
2021/12/07 12:13:43;;;;;;;;;;;21.80;33.00;;;;;;477643;249;1210;-46
2021/12/07 12:15:43;;;;;;;;;;;21.70;33.00;;;;;;477475;248;2215;-46
2021/12/07 12:17:44;;;;;;;;;;;21.60;33.20;;;;;;477514;249;1233;-46
2021/12/07 12:19:46;;;;;;;;;;;21.60;33.30;;;;;;477776;248;1146;-46
2021/12/07 12:21:48;;;;;;;;;;;21.60;33.30;;;;;;477553;248;1232;-46
2021/12/07 12:23:49;;;;;;;;;;;21.50;33.30;;;;;;477798;249;1061;-46
2021/12/07 12:25:50;;;;;;;;;;;21.50;33.40;;;;;;477591;249;1090;-46
2021/12/07 12:27:52;;;;;;;;;;;21.50;33.40;;;;;;477591;249;1250;-46
2021/12/07 12:29:53;;;;;;;;;;;21.40;33.40;;;;;;477613;249;1156;-46
2021/12/07 12:31:54;;;;;;;;;;;21.40;33.40;;;;;;477555;249;1325;-46
2021/12/07 12:33:56;;;;;;;;;;;21.40;33.50;;;;;;477567;249;1098;-46
2021/12/07 12:35:59;;;;;;;;;;;21.40;33.60;;;;;;477586;249;2187;-46
2021/12/07 12:37:58;;;;;;;;;;;21.30;33.60;;;;;;477457;248;2000;-46
2021/12/07 12:40:00;;;;;;;;;;;21.30;33.70;;;;;;477535;249;1092;-46
2021/12/07 12:42:01;;;;;;;;;;;21.30;33.70;;;;;;477635;249;1466;-46
2021/12/07 12:44:02;;;;;;;;;;;21.30;33.80;;;;;;477646;249;1070;-46
2021/12/07 12:46:04;;;;;;;;;;;21.20;33.80;;;;;;477516;249;1336;-46
2021/12/07 12:48:05;;;;;;;;;;;21.20;33.80;;;;;;477435;248;1224;-46
2021/12/07 12:50:06;;;;;;;;;;;21.20;33.80;;;;;;477420;249;1165;-46
2021/12/07 12:52:08;;;;;;;;;;;21.20;33.80;;;;;;477303;249;1115;-45
2021/12/07 12:54:09;;;;;;;;;;;21.10;33.80;;;;;;477375;248;1133;-46
2021/12/07 12:56:10;;;;;;;;;;;21.20;33.80;;;;;;477493;248;2235;-46
2021/12/07 12:58:12;;;;;;;;;;;21.20;33.80;;;;;;477598;249;1084;-46
2021/12/07 13:00:13;;;;;;;;;;;21.10;33.80;;;;;;477552;249;1164;-46
2021/12/07 13:02:14;;;;;;;;;;;21.10;33.80;;;;;;477471;249;1111;-46
2021/12/07 13:04:16;;;;;;;;;;;21.10;33.80;;;;;;477610;249;1244;-46
2021/12/07 13:06:17;;;;;;;;;;;21.10;33.80;;;;;;477647;249;1329;-46
2021/12/07 13:08:18;;;;;;;;;;;21.10;33.80;;;;;;477723;249;1112;-46
2021/12/07 13:10:20;;;;;;;;;;;21.10;33.90;;;;;;477771;248;1222;-46
2021/12/07 13:12:21;;;;;;;;;;;21.10;33.90;;;;;;477606;249;1269;-46
2021/12/07 13:14:22;;;;;;;;;;;21.00;33.80;;;;;;477689;248;1121;-47
2021/12/07 13:16:24;;;;;;;;;;;21.00;33.80;;;;;;477613;249;2163;-46